createdAt,value
2023-02-13T00:01:06.626Z,79.18
2023-02-13T00:03:36.057Z,89.78
2023-02-13T00:06:04.176Z,92.10
2023-02-13T00:08:32.216Z,81.00
2023-02-13T00:11:00.361Z,76.97
2023-02-13T00:13:28.512Z,82.00
2023-02-13T00:15:58.103Z,80.63
2023-02-13T00:18:26.257Z,93.80
2023-02-13T00:21:04.236Z,80.75
2023-02-13T00:23:33.663Z,92.03
2023-02-13T00:26:05.832Z,68.13
2023-02-13T00:28:33.959Z,83.82
2023-02-13T00:31:07.092Z,80.47
2023-02-13T00:33:35.783Z,75.78
2023-02-13T00:36:07.919Z,81.13
2023-02-13T00:38:36.668Z,78.25
2023-02-13T00:41:04.994Z,87.25
2023-02-13T00:43:33.890Z,88.40
2023-02-13T00:46:02.171Z,82.93
2023-02-13T00:48:32.238Z,77.95
2023-02-13T00:51:00.534Z,76.45
2023-02-13T00:53:30.073Z,69.38
2023-02-13T00:55:58.473Z,85.35
2023-02-13T00:58:27.032Z,77.63
2023-02-13T01:00:56.545Z,76.47
2023-02-13T01:03:25.098Z,74.80
2023-02-13T01:05:53.508Z,74.20
2023-02-13T01:08:21.733Z,77.75
2023-02-13T01:10:51.613Z,79.05
2023-02-13T01:13:19.878Z,78.88
2023-02-13T01:15:48.897Z,85.40
2023-02-13T01:18:18.767Z,83.82
2023-02-13T01:20:56.486Z,88.28
2023-02-13T01:23:24.729Z,89.85
2023-02-13T01:25:54.203Z,91.10
2023-02-13T01:28:22.280Z,94.22
2023-02-13T01:30:55.308Z,91.75
2023-02-13T01:33:23.811Z,83.88
2023-02-13T01:35:52.547Z,77.78
2023-02-13T01:38:20.795Z,79.35
2023-02-13T01:40:49.806Z,79.78
2023-02-13T01:43:19.869Z,79.25
2023-02-13T01:45:51.381Z,75.82
2023-02-13T01:48:22.312Z,81.13
2023-02-13T01:50:53.351Z,72.00
2023-02-13T01:53:28.366Z,75.60
2023-02-13T01:55:59.726Z,58.83
2023-02-13T01:58:33.664Z,56.22
2023-02-13T02:01:03.100Z,59.13
2023-02-13T02:03:36.310Z,58.83
2023-02-13T02:06:06.090Z,52.55
2023-02-13T02:08:36.372Z,60.00
2023-02-13T02:11:11.694Z,54.55
2023-02-13T02:13:41.456Z,51.05
2023-02-13T02:16:09.661Z,50.50
2023-02-13T02:18:37.751Z,47.47
2023-02-13T02:21:43.665Z,47.55
2023-02-13T02:24:29.926Z,45.53
2023-02-13T02:27:36.923Z,46.15
2023-02-13T02:30:38.107Z,44.47
2023-02-13T02:33:19.776Z,44.17
2023-02-13T02:36:01.173Z,41.28
2023-02-13T02:38:42.585Z,39.28
2023-02-13T02:41:36.215Z,46.42
2023-02-13T02:44:17.482Z,45.33
2023-02-13T02:47:11.949Z,46.28
2023-02-13T02:49:59.751Z,45.22
2023-02-13T02:52:41.721Z,43.80
2023-02-13T02:55:18.376Z,41.85
2023-02-13T02:58:08.704Z,36.67
2023-02-13T03:00:58.346Z,38.17
2023-02-13T03:03:45.835Z,39.00
2023-02-13T03:06:19.958Z,39.92
2023-02-13T03:09:11.270Z,39.70
2023-02-13T03:11:57.912Z,46.17
2023-02-13T03:14:28.564Z,40.55
2023-02-13T03:17:16.623Z,42.45
2023-02-13T03:20:13.741Z,39.05
2023-02-13T03:22:54.271Z,42.70
2023-02-13T03:25:34.330Z,41.47
2023-02-13T03:28:30.298Z,39.38
2023-02-13T03:31:05.099Z,35.72
2023-02-13T03:33:57.139Z,43.75
2023-02-13T03:36:52.346Z,36.92
2023-02-13T03:39:25.130Z,38.17
2023-02-13T03:41:59.020Z,38.17
2023-02-13T03:44:31.446Z,31.38
2023-02-13T03:47:02.576Z,37.55
2023-02-13T03:49:52.068Z,36.15
2023-02-13T03:52:25.835Z,36.97
2023-02-13T03:55:15.833Z,36.15
2023-02-13T03:58:03.219Z,33.33
2023-02-13T04:00:40.702Z,39.17
2023-02-13T04:03:15.423Z,36.25
2023-02-13T04:05:48.195Z,35.90
2023-02-13T04:08:16.592Z,39.83
2023-02-13T04:10:53.302Z,36.50
2023-02-13T04:13:29.107Z,37.33
2023-02-13T04:16:02.538Z,29.42
2023-02-13T04:18:32.965Z,37.95
2023-02-13T04:21:03.954Z,28.88
2023-02-13T04:23:31.995Z,29.75
2023-02-13T04:26:03.504Z,33.85
2023-02-13T04:28:31.627Z,30.73
2023-02-13T04:31:00.344Z,27.85
2023-02-13T04:33:28.669Z,33.28
2023-02-13T04:35:56.897Z,29.52
2023-02-13T04:38:25.110Z,33.53
2023-02-13T04:40:53.153Z,35.65
2023-02-13T04:43:22.921Z,31.05
2023-02-13T04:45:51.327Z,30.17
2023-02-13T04:48:19.488Z,28.15
2023-02-13T04:50:48.026Z,32.45
2023-02-13T04:53:16.085Z,32.55
2023-02-13T04:55:44.394Z,32.28
2023-02-13T04:58:12.540Z,32.20
2023-02-13T05:00:42.118Z,28.80
2023-02-13T05:03:12.532Z,38.53
2023-02-13T05:05:41.232Z,35.42
2023-02-13T05:08:10.200Z,31.85
2023-02-13T05:10:38.630Z,31.52
2023-02-13T05:13:06.859Z,35.20
2023-02-13T05:15:35.127Z,34.72
2023-02-13T05:18:04.662Z,35.13
2023-02-13T05:20:32.759Z,33.50
2023-02-13T05:23:18.072Z,33.30
2023-02-13T05:25:46.163Z,33.45
2023-02-13T05:28:28.156Z,29.45
2023-02-13T05:30:56.665Z,32.00
2023-02-13T05:33:26.526Z,26.30
2023-02-13T05:35:54.667Z,30.23
2023-02-13T05:38:22.680Z,31.33
2023-02-13T05:40:50.736Z,33.60
2023-02-13T05:43:18.783Z,28.17
2023-02-13T05:45:46.908Z,26.70
2023-02-13T05:48:14.985Z,31.95
2023-02-13T05:50:44.532Z,30.73
2023-02-13T05:53:12.562Z,33.83
2023-02-13T05:55:40.961Z,31.50
2023-02-13T05:58:09.531Z,29.30
2023-02-13T06:00:37.651Z,32.60
2023-02-13T06:03:05.784Z,33.30
2023-02-13T06:05:33.878Z,31.25
2023-02-13T06:08:03.339Z,30.92
2023-02-13T06:10:31.513Z,32.17
2023-02-13T06:12:59.566Z,29.50
2023-02-13T06:15:27.659Z,34.08
2023-02-13T06:17:55.763Z,29.48
2023-02-13T06:20:24.202Z,36.53
2023-02-13T06:22:52.591Z,35.10
2023-02-13T06:25:22.472Z,28.48
2023-02-13T06:27:50.604Z,29.95
2023-02-13T06:30:19.920Z,36.67
2023-02-13T06:32:49.109Z,33.90
2023-02-13T06:35:17.460Z,30.45
2023-02-13T06:37:45.924Z,38.28
2023-02-13T06:40:15.733Z,113.68
2023-02-13T06:42:46.000Z,141.85
2023-02-13T06:45:14.488Z,43.97
2023-02-13T06:47:43.670Z,41.42
2023-02-13T06:50:13.692Z,39.33
2023-02-13T06:52:46.265Z,28.85
2023-02-13T06:55:14.559Z,33.28
2023-02-13T06:57:44.452Z,33.08
2023-02-13T07:00:15.032Z,35.17
2023-02-13T07:02:43.935Z,35.65
2023-02-13T07:05:12.789Z,31.00
2023-02-13T07:07:42.833Z,31.52
2023-02-13T07:10:13.524Z,29.58
2023-02-13T07:12:41.620Z,25.67
2023-02-13T07:15:11.750Z,24.88
2023-02-13T07:17:39.777Z,29.85
2023-02-13T07:20:10.434Z,35.42
2023-02-13T07:22:38.558Z,31.67
2023-02-13T07:25:07.193Z,29.63
2023-02-13T07:27:35.322Z,32.00
2023-02-13T07:30:03.392Z,29.27
2023-02-13T07:32:32.832Z,35.28
2023-02-13T07:35:02.322Z,32.47
2023-02-13T07:37:31.189Z,41.42
2023-02-13T07:39:59.360Z,36.72
2023-02-13T07:42:27.562Z,50.60
2023-02-13T07:44:55.658Z,42.38
2023-02-13T07:47:23.778Z,38.50
2023-02-13T07:49:54.815Z,56.85
2023-02-13T07:52:22.909Z,44.63
2023-02-13T07:54:51.445Z,49.80
2023-02-13T07:57:19.561Z,47.05
2023-02-13T07:59:47.616Z,44.17
2023-02-13T08:02:16.746Z,48.63
2023-02-13T08:04:46.522Z,47.75
2023-02-13T08:07:17.560Z,54.17
2023-02-13T08:10:04.117Z,62.08
2023-02-13T08:12:34.180Z,53.55
2023-02-13T08:15:02.383Z,58.42
2023-02-13T08:17:30.402Z,53.77
2023-02-13T08:19:58.777Z,52.10
2023-02-13T08:22:28.228Z,67.10
2023-02-13T08:24:56.340Z,60.13
2023-02-13T08:27:24.384Z,60.87
2023-02-13T08:29:52.562Z,55.35
2023-02-13T08:32:21.441Z,73.13
2023-02-13T08:34:49.570Z,96.83
2023-02-13T08:37:17.936Z,101.00
2023-02-13T08:39:47.352Z,80.57
2023-02-13T08:42:16.290Z,79.33
2023-02-13T08:44:44.644Z,67.67
2023-02-13T08:47:12.739Z,76.43
2023-02-13T08:49:40.847Z,84.37
2023-02-13T08:52:08.928Z,78.03
2023-02-13T08:54:37.075Z,73.83
2023-02-13T08:57:06.566Z,86.53
2023-02-13T08:59:34.573Z,65.90
2023-02-13T09:02:02.638Z,73.30
2023-02-13T09:04:30.966Z,72.20
2023-02-13T09:06:59.062Z,92.83
2023-02-13T09:09:27.125Z,84.90
2023-02-13T09:11:57.811Z,89.40
2023-02-13T09:14:27.230Z,80.20
2023-02-13T09:16:55.423Z,86.67
2023-02-13T09:19:23.689Z,85.40
2023-02-13T09:21:51.762Z,94.77
2023-02-13T09:24:19.806Z,89.40
2023-02-13T09:26:47.997Z,86.77
2023-02-13T09:29:16.290Z,78.47
2023-02-13T09:31:45.849Z,81.67
2023-02-13T09:34:13.935Z,76.60
2023-02-13T09:36:42.027Z,71.00
2023-02-13T09:39:10.930Z,79.63
2023-02-13T09:41:42.483Z,69.50
2023-02-13T09:44:33.800Z,78.37
2023-02-13T09:47:06.623Z,73.43
2023-02-13T09:49:41.320Z,88.47
2023-02-13T09:52:10.807Z,95.13
2023-02-13T09:54:38.863Z,83.27
2023-02-13T09:57:15.641Z,76.47
2023-02-13T09:59:58.140Z,72.47
2023-02-13T10:02:49.434Z,80.40
2023-02-13T10:05:37.036Z,69.77
2023-02-13T10:08:13.446Z,75.33
2023-02-13T10:10:51.177Z,76.73
2023-02-13T10:13:31.240Z,75.33
2023-02-13T10:16:07.564Z,78.70
2023-02-13T10:18:49.175Z,66.80
2023-02-13T10:21:22.835Z,72.97
2023-02-13T10:23:56.062Z,71.47
2023-02-13T10:26:42.439Z,71.97
2023-02-13T10:29:34.103Z,67.33
2023-02-13T10:32:07.186Z,67.17
2023-02-13T10:34:41.505Z,70.17
2023-02-13T10:37:15.790Z,65.50
2023-02-13T10:39:46.328Z,60.23
2023-02-13T10:42:23.845Z,63.93
2023-02-13T10:45:03.390Z,71.30
2023-02-13T10:47:43.067Z,69.13
2023-02-13T10:50:23.888Z,66.40
2023-02-13T10:52:58.277Z,64.90
2023-02-13T10:55:54.220Z,68.30
2023-02-13T10:58:27.478Z,52.70
2023-02-13T11:00:59.848Z,53.37
2023-02-13T11:03:29.655Z,52.30
2023-02-13T11:06:02.322Z,43.77
2023-02-13T11:08:34.745Z,49.77
2023-02-13T11:11:03.004Z,59.73
2023-02-13T11:13:31.802Z,53.37
2023-02-13T11:16:03.803Z,57.10
2023-02-13T11:18:34.971Z,62.70
2023-02-13T11:21:09.845Z,57.80
2023-02-13T11:23:45.121Z,58.57
2023-02-13T11:26:16.558Z,54.60
2023-02-13T11:28:51.913Z,47.37
2023-02-13T11:31:29.836Z,47.70
2023-02-13T11:33:59.403Z,57.33
2023-02-13T11:36:31.122Z,50.43
2023-02-13T11:39:00.933Z,51.00
2023-02-13T11:41:31.116Z,154.03
2023-02-13T11:44:02.350Z,46.63
2023-02-13T11:46:43.977Z,51.33
2023-02-13T11:49:20.073Z,41.00
2023-02-13T11:51:51.200Z,39.43
2023-02-13T11:54:25.546Z,47.47
2023-02-13T11:57:10.868Z,39.60
2023-02-13T11:59:42.432Z,37.57
2023-02-13T12:02:17.659Z,36.57
2023-02-13T12:04:46.282Z,40.17
2023-02-13T12:07:20.363Z,38.00
2023-02-13T12:09:52.376Z,40.20
2023-02-13T12:12:27.147Z,24.50
2023-02-13T12:14:56.782Z,29.67
2023-02-13T12:17:31.834Z,38.57
2023-02-13T12:20:01.212Z,36.13
2023-02-13T12:22:43.403Z,32.27
2023-02-13T12:25:26.810Z,34.47
2023-02-13T12:28:19.218Z,37.87
2023-02-13T12:31:15.467Z,35.00
2023-02-13T12:34:26.542Z,33.30
2023-02-13T12:37:07.799Z,31.37
2023-02-13T12:39:40.265Z,28.90
2023-02-13T12:42:32.731Z,26.23
2023-02-13T12:45:16.923Z,21.40
2023-02-13T12:48:01.947Z,25.60
2023-02-13T12:50:38.526Z,23.20
2023-02-13T12:53:23.869Z,23.30
2023-02-13T12:55:59.162Z,27.53
2023-02-13T12:58:44.769Z,27.33
2023-02-13T13:01:24.139Z,26.53
2023-02-13T13:04:02.541Z,29.33
2023-02-13T13:06:44.873Z,34.53
2023-02-13T13:09:40.709Z,31.47
2023-02-13T13:12:21.175Z,24.83
2023-02-13T13:14:55.479Z,21.87
2023-02-13T13:17:38.872Z,28.00
2023-02-13T13:20:36.464Z,28.33
2023-02-13T13:23:09.814Z,25.30
2023-02-13T13:25:46.337Z,26.53
2023-02-13T13:28:22.055Z,31.03
2023-02-13T13:30:50.874Z,28.03
2023-02-13T13:33:20.937Z,26.90
2023-02-13T13:35:56.672Z,27.47
2023-02-13T13:38:31.928Z,28.40
2023-02-13T13:41:07.089Z,31.60
2023-02-13T13:43:45.114Z,31.50
2023-02-13T13:46:19.716Z,28.60
2023-02-13T13:49:07.214Z,35.40
2023-02-13T13:51:35.301Z,29.53
2023-02-13T13:54:36.855Z,29.73
2023-02-13T13:57:12.774Z,23.70
2023-02-13T14:00:28.696Z,28.10
2023-02-13T14:03:26.219Z,26.13
2023-02-13T14:06:04.669Z,27.00
2023-02-13T14:09:29.282Z,24.27
2023-02-13T14:11:58.521Z,26.60
2023-02-13T14:14:53.862Z,28.33
2023-02-13T14:17:56.624Z,28.00
2023-02-13T14:20:37.537Z,28.50
2023-02-13T14:23:35.788Z,26.63
2023-02-13T14:26:20.060Z,25.30
2023-02-13T14:29:03.881Z,24.83
2023-02-13T14:31:35.529Z,29.87
2023-02-13T14:34:06.496Z,23.90
2023-02-13T14:36:37.861Z,25.17
2023-02-13T14:39:17.482Z,30.63
2023-02-13T14:41:57.698Z,29.13
2023-02-13T14:44:31.494Z,27.67
2023-02-13T14:47:01.208Z,33.20
2023-02-13T14:49:31.606Z,30.57
2023-02-13T14:52:04.127Z,33.40
2023-02-13T14:54:34.569Z,29.77
2023-02-13T14:57:10.124Z,32.70
2023-02-13T14:59:44.215Z,25.20
2023-02-13T15:02:22.167Z,29.80
2023-02-13T15:04:55.030Z,28.00
2023-02-13T15:07:28.899Z,29.00
2023-02-13T15:10:01.320Z,30.00
2023-02-13T15:12:32.176Z,33.80
2023-02-13T15:15:02.385Z,29.93
2023-02-13T15:17:32.844Z,29.07
2023-02-13T15:20:09.832Z,38.30
2023-02-13T15:22:42.714Z,28.73
2023-02-13T15:25:24.331Z,30.17
2023-02-13T15:27:55.258Z,32.67
2023-02-13T15:30:26.286Z,31.67
2023-02-13T15:32:58.850Z,30.43
2023-02-13T15:35:29.315Z,36.50
2023-02-13T15:37:59.285Z,29.70
2023-02-13T15:40:29.637Z,29.57
2023-02-13T15:42:58.661Z,28.63
2023-02-13T15:45:28.898Z,27.60
2023-02-13T15:47:59.075Z,35.90
2023-02-13T15:50:32.582Z,25.93
2023-02-13T15:53:05.801Z,28.90
2023-02-13T15:55:36.677Z,31.70
2023-02-13T15:58:05.282Z,29.40
2023-02-13T16:00:36.447Z,30.10
2023-02-13T16:03:07.946Z,29.43
2023-02-13T16:05:41.507Z,30.07
2023-02-13T16:08:35.359Z,29.50
2023-02-13T16:11:26.062Z,34.57
2023-02-13T16:14:03.628Z,44.77
2023-02-13T16:16:35.850Z,35.50
2023-02-13T16:19:21.227Z,32.13
2023-02-13T16:22:13.242Z,26.10
2023-02-13T16:24:53.977Z,35.10
2023-02-13T16:27:38.705Z,31.07
2023-02-13T16:30:24.414Z,35.03
2023-02-13T16:33:26.106Z,30.20
2023-02-13T16:36:28.768Z,34.30
2023-02-13T16:39:15.872Z,39.20
2023-02-13T16:41:49.548Z,48.47
2023-02-13T16:44:36.756Z,47.87
2023-02-13T16:47:39.031Z,36.80
2023-02-13T16:50:30.597Z,40.07
2023-02-13T16:53:17.774Z,47.53
2023-02-13T16:56:03.350Z,38.17
2023-02-13T16:58:39.582Z,41.33
2023-02-13T17:01:07.840Z,46.23
2023-02-13T17:03:35.892Z,34.30
2023-02-13T17:06:04.659Z,41.87
2023-02-13T17:08:33.039Z,44.90
2023-02-13T17:11:06.077Z,52.33
2023-02-13T17:13:35.954Z,36.77
2023-02-13T17:16:04.098Z,41.90
2023-02-13T17:18:32.170Z,38.67
2023-02-13T17:21:01.355Z,38.23
2023-02-13T17:23:29.662Z,52.00
2023-02-13T17:25:58.493Z,48.63
2023-02-13T17:28:30.261Z,44.90
2023-02-13T17:31:01.681Z,41.90
2023-02-13T17:33:31.585Z,49.10
2023-02-13T17:35:59.648Z,39.07
2023-02-13T17:38:27.796Z,48.43
2023-02-13T17:40:56.291Z,51.80
2023-02-13T17:43:25.333Z,42.87
2023-02-13T17:45:53.429Z,42.60
2023-02-13T17:48:24.033Z,70.93
2023-02-13T17:50:52.654Z,51.50
2023-02-13T17:53:24.950Z,41.70
2023-02-13T17:55:53.326Z,47.80
2023-02-13T17:58:21.392Z,43.57
2023-02-13T18:00:49.672Z,48.97
2023-02-13T18:03:17.737Z,57.50
2023-02-13T18:05:49.099Z,40.63
2023-02-13T18:08:17.985Z,43.20
2023-02-13T18:10:46.098Z,44.33
2023-02-13T18:13:14.506Z,47.13
2023-02-13T18:15:44.698Z,44.93
2023-02-13T18:18:15.147Z,52.53
2023-02-13T18:20:43.402Z,40.70
2023-02-13T18:23:13.967Z,45.00
2023-02-13T18:25:42.168Z,44.07
2023-02-13T18:28:10.182Z,44.30
2023-02-13T18:30:38.291Z,47.73
2023-02-13T18:33:06.639Z,50.90
2023-02-13T18:35:36.567Z,41.07
2023-02-13T18:38:04.675Z,38.30
2023-02-13T18:40:34.167Z,43.43
2023-02-13T18:43:02.219Z,36.83
2023-02-13T18:45:30.747Z,44.47
2023-02-13T18:47:58.775Z,45.20
2023-02-13T18:50:26.882Z,37.33
2023-02-13T18:52:55.097Z,52.50
2023-02-13T18:55:23.257Z,38.80
2023-02-13T18:57:54.579Z,38.13
2023-02-13T19:00:23.581Z,43.23
2023-02-13T19:02:51.741Z,38.67
2023-02-13T19:05:20.343Z,39.97
2023-02-13T19:07:48.421Z,40.97
2023-02-13T19:10:16.639Z,42.93
2023-02-13T19:12:44.690Z,34.63
2023-02-13T19:15:14.200Z,45.27
2023-02-13T19:17:42.277Z,39.60
2023-02-13T19:20:11.191Z,31.60
2023-02-13T19:22:39.346Z,39.50
2023-02-13T19:25:07.842Z,38.47
2023-02-13T19:27:38.580Z,31.73
2023-02-13T19:30:09.511Z,44.73
2023-02-13T19:32:39.082Z,70.60
2023-02-13T19:35:07.853Z,36.10
2023-02-13T19:37:43.712Z,35.73
2023-02-13T19:40:14.235Z,36.17
2023-02-13T19:42:42.274Z,45.73
2023-02-13T19:45:11.395Z,37.87
2023-02-13T19:47:40.807Z,40.30
2023-02-13T19:50:09.800Z,33.10
2023-02-13T19:52:38.068Z,39.43
2023-02-13T19:55:06.623Z,37.13
2023-02-13T19:57:34.903Z,45.03
2023-02-13T20:00:04.705Z,36.27
2023-02-13T20:02:32.771Z,36.03
2023-02-13T20:05:06.959Z,36.10
2023-02-13T20:07:35.066Z,35.13
2023-02-13T20:10:03.218Z,42.57
2023-02-13T20:12:31.259Z,35.37
2023-02-13T20:14:59.361Z,38.80
2023-02-13T20:17:27.425Z,34.10
2023-02-13T20:19:55.904Z,41.23
2023-02-13T20:22:25.338Z,41.10
2023-02-13T20:24:53.460Z,36.30
2023-02-13T20:27:21.581Z,37.40
2023-02-13T20:29:50.219Z,33.80
2023-02-13T20:32:19.495Z,30.50
2023-02-13T20:34:59.647Z,32.27
2023-02-13T20:37:29.371Z,36.50
2023-02-13T20:39:57.416Z,34.43
2023-02-13T20:42:25.773Z,53.27
2023-02-13T20:44:53.804Z,39.23
2023-02-13T20:47:21.906Z,44.47
2023-02-13T20:49:49.929Z,36.67
2023-02-13T20:52:18.022Z,31.87
2023-02-13T20:54:47.784Z,58.50
2023-02-13T20:57:16.047Z,43.20
2023-02-13T20:59:44.827Z,33.97
2023-02-13T21:02:13.622Z,34.83
2023-02-13T21:04:41.711Z,33.83
2023-02-13T21:07:10.147Z,30.40
2023-02-13T21:09:38.321Z,34.33
2023-02-13T21:12:08.034Z,31.50
2023-02-13T21:14:36.247Z,30.40
2023-02-13T21:17:04.406Z,32.10
2023-02-13T21:19:32.444Z,32.20
2023-02-13T21:22:11.156Z,42.50
2023-02-13T21:24:41.395Z,32.10
2023-02-13T21:27:11.739Z,35.57
2023-02-13T21:29:40.030Z,33.27
2023-02-13T21:32:08.136Z,29.93
2023-02-13T21:34:36.298Z,34.13
2023-02-13T21:37:04.374Z,29.38
2023-02-13T21:39:32.457Z,30.73
2023-02-13T21:42:00.669Z,37.33
2023-02-13T21:44:30.084Z,32.47
2023-02-13T21:46:58.181Z,33.50
2023-02-13T21:49:26.363Z,35.17
2023-02-13T21:51:54.404Z,36.27
2023-02-13T21:54:22.477Z,27.43
2023-02-13T21:56:50.579Z,30.90
2023-02-13T21:59:18.862Z,33.90
2023-02-13T22:01:51.148Z,30.40
2023-02-13T22:04:19.626Z,30.95
2023-02-13T22:06:50.940Z,33.93
2023-02-13T22:09:20.477Z,32.00
2023-02-13T22:11:50.445Z,32.28
2023-02-13T22:14:19.777Z,29.58
2023-02-13T22:16:51.948Z,28.75
2023-02-13T22:19:20.580Z,38.60
2023-02-13T22:21:48.852Z,29.48
2023-02-13T22:24:17.020Z,29.67
2023-02-13T22:26:46.272Z,34.47
2023-02-13T22:29:16.326Z,31.92
2023-02-13T22:31:44.771Z,37.80
2023-02-13T22:34:14.822Z,34.60
2023-02-13T22:36:43.072Z,33.45
2023-02-13T22:39:12.592Z,30.70
2023-02-13T22:41:41.090Z,30.63
2023-02-13T22:44:09.179Z,36.08
2023-02-13T22:46:37.287Z,27.08
2023-02-13T22:49:05.430Z,29.17
2023-02-13T22:51:36.763Z,31.13
2023-02-13T22:54:05.237Z,31.92
2023-02-13T22:56:34.127Z,31.70
2023-02-13T22:59:02.324Z,43.10
2023-02-13T23:01:30.902Z,35.03
2023-02-13T23:03:59.248Z,33.65
2023-02-13T23:06:28.530Z,29.00
2023-02-13T23:08:58.394Z,30.65
2023-02-13T23:11:45.831Z,27.00
2023-02-13T23:14:14.645Z,29.13
2023-02-13T23:17:01.154Z,38.20
2023-02-13T23:19:30.651Z,26.25
2023-02-13T23:21:58.849Z,34.35
2023-02-13T23:24:28.836Z,35.10
2023-02-13T23:26:56.940Z,30.55
2023-02-13T23:29:25.098Z,31.17
2023-02-13T23:31:53.404Z,34.65
2023-02-13T23:34:21.568Z,28.48
2023-02-13T23:36:49.821Z,29.65
2023-02-13T23:39:17.896Z,26.65
2023-02-13T23:41:47.364Z,32.17
2023-02-13T23:44:15.407Z,28.98
2023-02-13T23:46:43.504Z,30.17
2023-02-13T23:49:11.636Z,34.30
2023-02-13T23:51:39.774Z,31.35
2023-02-13T23:54:07.816Z,28.95
2023-02-13T23:56:35.900Z,31.05
2023-02-13T23:59:05.295Z,30.88
